Time;durP1;ratioP1;P1;durP2;ratioP2;P2;SDS_P1;SDS_P2;PMS_P1;PMS_P2;Temp;Humidity;BMP_temperature;BMP_pressure;BME280_temperature;BME280_humidity;BME280_pressure;Samples;Min_cycle;Max_cycle;Signal;HPM_P1;HPM_P2
2022/01/14 00:00:21;;;;;;;19.20;8.03;;;;;;;5.14;100.00;102223.34;5037966;28;20045;-85
2022/01/14 00:02:49;;;;;;;15.20;7.60;;;;;;;5.12;100.00;102226.75;5017480;28;20092;-85
2022/01/14 00:05:16;;;;;;;17.53;8.80;;;;;;;5.03;100.00;102228.28;5035230;28;20041;-85
2022/01/14 00:07:43;;;;;;;14.43;6.40;;;;;;;5.03;100.00;102232.63;5017815;28;20053;-85
2022/01/14 00:10:10;;;;;;;13.93;8.73;;;;;;;5.03;100.00;102233.53;5017528;28;20038;-84
2022/01/14 00:12:46;;;;;;;17.43;8.13;;;;;;;5.07;100.00;102238.00;5010252;28;20049;-85
2022/01/14 00:15:24;;;;;;;16.03;8.27;;;;;;;5.04;100.00;102229.16;5020481;28;20559;-85
2022/01/14 00:17:52;;;;;;;15.37;8.47;;;;;;;5.03;100.00;102223.03;5018793;28;20041;-85
2022/01/14 00:20:21;;;;;;;18.37;8.10;;;;;;;4.99;100.00;102223.81;5015261;28;20048;-85
2022/01/14 00:22:47;;;;;;;15.53;7.30;;;;;;;5.07;100.00;102229.28;5047904;28;20094;-84
2022/01/14 00:33:35;;;;;;;10.97;5.17;;;;;;;5.22;100.00;102226.19;5037748;28;20093;-84
2022/01/14 00:36:02;;;;;;;10.53;5.10;;;;;;;5.23;100.00;102220.09;5017822;28;20127;-85
2022/01/14 00:38:29;;;;;;;12.40;5.07;;;;;;;5.23;100.00;102220.09;5017754;28;20106;-85
2022/01/14 00:40:58;;;;;;;11.93;4.13;;;;;;;5.29;100.00;102221.13;5034002;28;20041;-84
2022/01/14 00:43:25;;;;;;;11.10;4.73;;;;;;;5.27;100.00;102217.56;5034671;28;20049;-84
2022/01/14 00:45:53;;;;;;;14.07;5.00;;;;;;;5.39;100.00;102221.38;5033513;28;20044;-85
2022/01/14 00:48:20;;;;;;;12.50;4.43;;;;;;;5.40;100.00;102223.16;5024848;28;20128;-85
2022/01/14 00:50:49;;;;;;;10.47;4.80;;;;;;;5.46;100.00;102210.19;5003594;28;20045;-85
2022/01/14 00:53:16;;;;;;;8.53;4.27;;;;;;;5.44;100.00;102209.25;5033772;28;20045;-84
2022/01/14 00:55:52;;;;;;;11.30;4.83;;;;;;;5.48;100.00;102201.53;5014504;28;20050;-85
2022/01/14 01:01:07;;;;;;;11.87;4.03;;;;;;;5.49;100.00;102207.66;5024988;28;20052;-85
2022/01/14 01:03:35;;;;;;;9.33;3.70;;;;;;;5.55;100.00;102210.41;5014308;28;20061;-85
2022/01/14 01:06:02;;;;;;;8.27;4.37;;;;;;;5.44;100.00;102209.25;5020918;28;20140;-85
2022/01/14 01:08:31;;;;;;;7.37;3.63;;;;;;;5.48;100.00;102213.75;5017385;28;20502;-85
2022/01/14 01:10:57;;;;;;;9.37;3.93;;;;;;;5.46;100.00;102216.31;5017210;28;20045;-85
2022/01/14 01:13:31;;;;;;;8.47;3.93;;;;;;;5.51;100.00;102217.31;5034478;28;20069;-85
2022/01/14 01:15:58;;;;;;;9.40;3.87;;;;;;;5.48;100.00;102213.75;5013480;28;20047;-85
2022/01/14 01:18:27;;;;;;;8.90;3.87;;;;;;;5.51;100.00;102209.47;5014500;28;20041;-85
2022/01/14 01:20:53;;;;;;;10.00;3.83;;;;;;;5.43;100.00;102221.47;5012803;28;20052;-84
2022/01/14 01:23:20;;;;;;;7.03;4.03;;;;;;;5.59;100.00;102217.50;5049286;28;20052;-84
2022/01/14 01:25:54;;;;;;;5.93;3.20;;;;;;;5.65;100.00;102220.28;5014105;28;20045;-85
2022/01/14 01:28:20;;;;;;;10.18;3.45;;;;;;;5.60;100.00;102217.53;5030009;28;20244;-84
2022/01/14 01:33:26;;;;;;;9.27;3.43;;;;;;;5.61;100.00;102200.97;5034899;28;20560;-86
2022/01/14 01:35:53;;;;;;;10.00;3.50;;;;;;;5.62;100.00;102199.22;5011976;28;20041;-84
2022/01/14 01:38:20;;;;;;;8.20;3.37;;;;;;;5.60;100.00;102188.72;5032767;28;20052;-84
2022/01/14 01:40:48;;;;;;;7.63;3.03;;;;;;;5.54;100.00;102199.03;5033478;28;20045;-85
2022/01/14 01:43:16;;;;;;;6.87;4.00;;;;;;;5.67;100.00;102201.97;5016168;28;20136;-85
2022/01/14 01:45:47;;;;;;;4.73;3.00;;;;;;;5.62;100.00;102199.22;5017591;28;20525;-86
2022/01/14 01:48:14;;;;;;;9.93;3.93;;;;;;;5.59;100.00;102196.53;5049012;28;20090;-86
2022/01/14 01:50:41;;;;;;;6.00;2.70;;;;;;;5.58;100.00;102194.78;5016756;28;20033;-85
2022/01/14 01:53:07;;;;;;;7.27;3.20;;;;;;;5.48;100.00;102200.66;5016304;28;20045;-85
2022/01/14 01:55:34;;;;;;;9.07;3.63;;;;;;;5.57;100.00;102204.38;5016942;28;20061;-85
2022/01/14 01:58:01;;;;;;;6.67;2.70;;;;;;;5.66;100.00;102195.84;5015884;28;20064;-87
2022/01/14 02:00:28;;;;;;;11.00;4.03;;;;;;;5.69;100.00;102195.91;5016455;28;20494;-85
2022/01/14 02:02:57;;;;;;;4.53;2.33;;;;;;;5.60;100.00;102195.69;5032141;28;20049;-85
2022/01/14 02:05:24;;;;;;;6.83;3.10;;;;;;;5.58;100.00;102177.31;5032577;28;20167;-85
2022/01/14 02:07:51;;;;;;;8.70;3.20;;;;;;;5.58;100.00;102168.56;5014357;28;20116;-84
2022/01/14 02:10:18;;;;;;;9.70;2.73;;;;;;;5.59;100.00;102162.47;5014263;28;20131;-85
2022/01/14 02:12:53;;;;;;;8.67;2.90;;;;;;;5.67;100.00;102155.66;5031895;28;20128;-85
2022/01/14 02:15:29;;;;;;;9.40;3.03;;;;;;;5.70;100.00;102145.22;5032853;28;20557;-85
2022/01/14 02:23:33;;;;;;;7.97;2.63;;;;;;;5.68;100.00;102146.06;4977832;28;20059;-85
2022/01/14 02:25:59;;;;;;;7.63;2.83;;;;;;;5.65;100.00;102142.53;4998407;28;20426;-84
2022/01/14 02:28:26;;;;;;;6.83;2.77;;;;;;;5.65;100.00;102141.63;5016263;28;20056;-85
2022/01/14 02:30:53;;;;;;;6.73;3.10;;;;;;;5.62;100.00;102142.44;5031945;28;20060;-85
2022/01/14 02:33:20;;;;;;;5.87;2.67;;;;;;;5.65;100.00;102142.53;5015371;28;20045;-85
2022/01/14 02:35:48;;;;;;;6.33;2.23;;;;;;;5.69;100.00;102143.47;5017718;28;20049;-85
2022/01/14 02:38:16;;;;;;;7.77;3.50;;;;;;;5.68;100.00;102135.56;5013598;28;20115;-85
2022/01/14 02:40:47;;;;;;;8.20;2.87;;;;;;;5.71;100.00;102139.13;5029534;28;20061;-84
2022/01/14 02:43:16;;;;;;;6.23;2.70;;;;;;;5.60;100.00;102128.41;5019420;28;20044;-85
2022/01/14 02:45:50;;;;;;;4.70;2.70;;;;;;;5.56;100.00;102123.97;5034386;28;20134;-85
2022/01/14 02:48:19;;;;;;;10.75;2.88;;;;;;;5.61;100.00;102116.19;5031397;28;20037;-86
2022/01/14 02:50:56;;;;;;;10.70;3.47;;;;;;;5.62;100.00;102105.72;5017389;28;20037;-85
2022/01/14 02:53:42;;;;;;;7.97;3.17;;;;;;;5.59;100.00;102105.66;5037716;23;20041;-83
2022/01/14 02:56:16;;;;;;;6.40;3.70;;;;;;;5.59;100.00;102102.16;5029637;28;20045;-83
2022/01/14 02:58:43;;;;;;;7.35;2.65;;;;;;;5.59;100.00;102097.81;5023390;28;20044;-83
2022/01/14 03:01:15;;;;;;;7.43;2.50;;;;;;;5.60;100.00;102101.31;5047524;28;20040;-83
2022/01/14 03:03:45;;;;;;;4.67;2.70;;;;;;;5.59;100.00;102086.44;5057614;28;20493;-82
2022/01/14 03:06:13;;;;;;;6.17;2.53;;;;;;;5.62;100.00;102090.00;5072697;28;20052;-82
2022/01/14 03:08:43;;;;;;;6.40;2.53;;;;;;;5.60;100.00;102083.84;5054701;28;20532;-83
2022/01/14 03:11:11;;;;;;;8.03;2.50;;;;;;;5.58;100.00;102080.31;5041940;28;20040;-84
2022/01/14 03:13:39;;;;;;;10.20;2.83;;;;;;;5.59;100.00;102078.56;5053233;28;20201;-84
2022/01/14 03:16:06;;;;;;;7.47;3.10;;;;;;;5.56;100.00;102074.16;5055418;28;20048;-84
2022/01/14 03:18:41;;;;;;;5.37;2.80;;;;;;;5.57;100.00;102077.66;5044694;28;20044;-84
2022/01/14 03:21:13;;;;;;;8.10;2.63;;;;;;;5.52;100.00;102072.28;5042371;28;20040;-83
2022/01/14 03:23:50;;;;;;;5.67;2.57;;;;;;;5.54;100.00;102065.34;5072797;28;20171;-83
2022/01/14 03:26:19;;;;;;;8.13;3.40;;;;;;;5.53;100.00;102062.69;5071772;28;20105;-83
2022/01/14 03:28:47;;;;;;;7.20;2.73;;;;;;;5.57;100.00;102064.53;5056260;28;20062;-83
2022/01/14 03:31:14;;;;;;;7.67;2.73;;;;;;;5.57;100.00;102057.56;5068347;28;20048;-82
2022/01/14 03:33:41;;;;;;;6.00;3.13;;;;;;;5.49;100.00;102053.88;5056261;28;20040;-82
2022/01/14 03:36:08;;;;;;;8.53;2.60;;;;;;;5.57;100.00;102048.81;5055374;28;20575;-83
2022/01/14 03:38:35;;;;;;;9.97;3.97;;;;;;;5.60;100.00;102052.38;5056653;28;20044;-83
2022/01/14 03:41:03;;;;;;;6.53;2.53;;;;;;;5.56;100.00;102042.69;5055757;28;20045;-84
2022/01/14 03:43:31;;;;;;;4.97;2.63;;;;;;;5.52;100.00;102039.94;5053366;28;20043;-82
2022/01/14 03:45:58;;;;;;;5.23;2.27;;;;;;;5.54;100.00;102043.47;5044397;28;20046;-82
2022/01/14 03:48:25;;;;;;;4.50;2.53;;;;;;;5.54;100.00;102047.00;5039462;28;20555;-83
2022/01/14 03:50:51;;;;;;;6.87;3.70;;;;;;;5.54;100.00;102053.97;5058930;28;20090;-82
2022/01/14 03:53:18;;;;;;;6.90;3.60;;;;;;;5.55;100.00;102055.72;5045647;28;20040;-82
2022/01/14 03:55:45;;;;;;;6.07;3.10;;;;;;;5.55;100.00;102056.66;5062650;28;20546;-82
2022/01/14 03:58:32;;;;;;;5.67;2.90;;;;;;;5.55;100.00;102048.78;5065791;28;20067;-84
2022/01/14 04:00:59;;;;;;;4.93;2.80;;;;;;;5.52;100.00;102051.31;5059153;28;20036;-83
2022/01/14 04:03:25;;;;;;;5.27;3.03;;;;;;;5.50;100.00;102046.91;5057335;28;20044;-85
2022/01/14 04:05:52;;;;;;;5.23;3.00;;;;;;;5.53;100.00;102046.97;5059054;28;20093;-85
2022/01/14 04:08:19;;;;;;;7.37;3.13;;;;;;;5.53;100.00;102034.75;5048724;28;20454;-84
2022/01/14 04:10:49;;;;;;;6.40;2.83;;;;;;;5.54;100.00;102039.13;5063321;28;20134;-84
2022/01/14 04:13:23;;;;;;;5.67;3.03;;;;;;;5.58;100.00;102033.13;5075267;28;20236;-83
2022/01/14 04:15:50;;;;;;;6.10;3.08;;;;;;;5.52;100.00;102038.22;5075848;28;20676;-83
2022/01/14 04:18:19;;;;;;;5.90;2.90;;;;;;;5.52;100.00;102032.09;5074973;28;20048;-82
2022/01/14 04:20:48;;;;;;;9.63;3.50;;;;;;;5.51;100.00;102036.44;5058965;28;20122;-84
2022/01/14 04:23:18;;;;;;;6.30;3.97;;;;;;;5.49;100.00;102030.28;5074447;28;20044;-83
2022/01/14 04:25:45;;;;;;;8.67;3.43;;;;;;;5.47;100.00;102031.13;5074799;28;20041;-82
2022/01/14 04:28:11;;;;;;;10.20;4.03;;;;;;;5.51;100.00;102017.22;5091251;28;20051;-82
2022/01/14 04:30:38;;;;;;;9.60;3.80;;;;;;;5.44;100.00;102017.94;5058942;28;20036;-82
2022/01/14 04:33:05;;;;;;;7.30;4.27;;;;;;;5.40;100.00;102018.72;5057694;28;20040;-83
2022/01/14 04:35:32;;;;;;;7.07;3.97;;;;;;;5.43;100.00;102026.66;5058822;28;20124;-83
2022/01/14 04:37:59;;;;;;;10.73;5.07;;;;;;;5.37;100.00;102027.38;5041395;28;20523;-82
2022/01/14 04:40:26;;;;;;;7.17;4.63;;;;;;;5.43;100.00;102022.28;5054587;28;20052;-84
2022/01/14 04:42:54;;;;;;;11.33;5.63;;;;;;;5.45;100.00;102012.72;5066319;28;20076;-83
2022/01/14 04:47:56;;;;;;;7.32;5.20;;;;;;;5.40;100.00;102009.13;5073665;28;20043;-83
2022/01/14 04:50:24;;;;;;;13.13;5.70;;;;;;;5.35;100.00;102018.59;5074879;28;20097;-84
2022/01/14 04:52:51;;;;;;;13.63;6.13;;;;;;;5.40;100.00;102014.38;5054717;28;20249;-82
2022/01/14 04:55:21;;;;;;;14.43;6.03;;;;;;;5.41;100.00;102010.91;5057813;28;20416;-83
2022/01/14 04:57:48;;;;;;;9.93;5.70;;;;;;;5.35;100.00;102006.38;5056849;28;20036;-83
2022/01/14 05:00:16;;;;;;;9.23;6.20;;;;;;;5.35;100.00;102014.25;5073731;28;20044;-81
2022/01/14 05:02:43;;;;;;;13.53;6.30;;;;;;;5.31;100.00;102009.81;5056495;28;20055;-84
2022/01/14 05:05:11;;;;;;;11.70;6.10;;;;;;;5.36;100.00;101991.53;5071001;28;20062;-84
2022/01/14 05:07:38;;;;;;;12.70;7.00;;;;;;;5.40;100.00;102001.25;5055648;28;20048;-84
2022/01/14 05:12:34;;;;;;;10.57;6.37;;;;;;;5.39;100.00;101991.63;5087178;28;20507;-82
2022/01/14 05:15:02;;;;;;;13.97;6.70;;;;;;;5.33;100.00;101995.00;5043495;28;20048;-84
2022/01/14 05:17:28;;;;;;;10.50;6.07;;;;;;;5.34;100.00;101982.78;5072679;28;20089;-83
2022/01/14 05:19:57;;;;;;;12.77;5.97;;;;;;;5.33;100.00;101981.00;5056578;28;20036;-83
2022/01/14 05:22:25;;;;;;;14.30;6.10;;;;;;;5.39;100.00;101978.53;5065014;28;20052;-84
2022/01/14 05:24:52;;;;;;;14.77;6.40;;;;;;;5.47;100.00;101981.31;5071961;28;20500;-83
2022/01/14 05:27:19;;;;;;;10.40;5.97;;;;;;;5.46;100.00;101983.03;5053013;28;20040;-82
2022/01/14 05:29:46;;;;;;;9.67;5.27;;;;;;;5.39;100.00;101990.75;5052043;28;20095;-82
2022/01/14 05:32:15;;;;;;;9.20;5.43;;;;;;;5.41;100.00;101994.28;5047210;28;20098;-83
2022/01/14 05:34:43;;;;;;;10.03;5.93;;;;;;;5.41;100.00;101997.78;5038093;28;20493;-83
2022/01/14 05:37:11;;;;;;;13.03;5.63;;;;;;;5.42;100.00;101983.81;5036581;28;20040;-84
2022/01/14 05:39:38;;;;;;;9.03;5.37;;;;;;;5.39;100.00;101993.38;5037646;28;20052;-82
2022/01/14 05:42:07;;;;;;;10.93;5.07;;;;;;;5.38;100.00;101979.34;5036269;28;20036;-84
2022/01/14 05:44:34;;;;;;;11.23;5.77;;;;;;;5.45;100.00;101976.03;5044359;28;20045;-83
2022/01/14 05:47:06;;;;;;;10.70;4.70;;;;;;;5.42;100.00;101985.56;5072992;28;20043;-82
2022/01/14 05:49:33;;;;;;;11.80;5.27;;;;;;;5.46;100.00;101988.28;5058601;28;20044;-84
2022/01/14 05:52:00;;;;;;;11.63;5.17;;;;;;;5.48;100.00;101993.56;5072657;28;20097;-83
2022/01/14 05:54:27;;;;;;;9.03;5.20;;;;;;;5.36;100.00;101988.94;5071375;28;20040;-84
2022/01/14 05:56:54;;;;;;;8.83;4.57;;;;;;;5.45;100.00;101981.25;5037624;28;20052;-82
2022/01/14 05:59:21;;;;;;;9.10;5.30;;;;;;;5.44;100.00;101989.97;5039714;28;20111;-83
2022/01/14 06:01:47;;;;;;;11.23;4.87;;;;;;;5.37;100.00;102001.19;5037728;28;20036;-83
2022/01/14 06:04:14;;;;;;;10.33;5.23;;;;;;;5.41;100.00;101989.03;5056708;28;20052;-85
2022/01/14 06:06:46;;;;;;;9.10;5.40;;;;;;;5.45;100.00;101988.25;5072203;28;20039;-83
2022/01/14 06:09:13;;;;;;;8.90;5.27;;;;;;;5.42;100.00;101999.56;5057800;28;20052;-83
2022/01/14 06:11:40;;;;;;;13.93;6.97;;;;;;;5.51;100.00;101998.88;5070497;28;20032;-84
2022/01/14 06:14:06;;;;;;;14.60;5.53;;;;;;;5.48;100.00;102012.81;5056795;28;20052;-83
2022/01/14 06:16:33;;;;;;;14.67;6.07;;;;;;;5.52;100.00;102022.50;5072765;28;20200;-83
2022/01/14 06:19:00;;;;;;;9.97;5.40;;;;;;;5.48;100.00;102015.44;5053895;28;20049;-82
2022/01/14 06:21:26;;;;;;;9.87;5.37;;;;;;;5.44;100.00;102016.19;5051555;28;20041;-83
2022/01/14 06:23:54;;;;;;;10.73;6.10;;;;;;;5.47;100.00;102026.75;5062715;28;20601;-83
2022/01/14 06:26:22;;;;;;;14.43;6.70;;;;;;;5.46;100.00;102019.72;5055434;28;20052;-82
2022/01/14 06:28:49;;;;;;;13.17;6.90;;;;;;;5.54;100.00;102017.28;5073809;28;20032;-82
2022/01/14 06:31:17;;;;;;;13.47;5.53;;;;;;;5.56;100.00;102012.97;5052240;28;20071;-83
2022/01/14 06:33:43;;;;;;;12.57;6.43;;;;;;;5.53;100.00;101998.03;5036711;28;20052;-83
2022/01/14 06:36:10;;;;;;;11.80;6.43;;;;;;;5.53;100.00;101995.41;5058561;28;21180;-83
2022/01/14 06:38:37;;;;;;;17.60;6.93;;;;;;;5.46;100.00;101993.50;5054133;28;20040;-84
2022/01/14 06:41:03;;;;;;;12.97;6.23;;;;;;;5.50;100.00;101994.47;5054144;28;20462;-82
2022/01/14 06:43:30;;;;;;;13.83;6.87;;;;;;;5.51;100.00;101981.41;5056105;28;20131;-82
2022/01/14 06:45:57;;;;;;;11.93;6.77;;;;;;;5.45;100.00;101993.47;5072220;28;20395;-82
2022/01/14 06:48:25;;;;;;;13.23;6.03;;;;;;;5.47;100.00;101984.81;5050210;28;20044;-82
2022/01/14 06:50:52;;;;;;;15.43;7.43;;;;;;;5.50;100.00;101997.09;5054065;28;20044;-83
2022/01/14 06:53:18;;;;;;;10.70;5.70;;;;;;;5.47;100.00;101979.59;5056772;28;20105;-84
2022/01/14 06:55:45;;;;;;;16.57;6.87;;;;;;;5.48;100.00;101983.09;5071503;28;20496;-83
2022/01/14 06:58:12;;;;;;;10.53;5.87;;;;;;;5.49;100.00;101982.22;5055258;28;20488;-82
2022/01/14 07:00:38;;;;;;;13.43;6.53;;;;;;;5.52;100.00;101980.53;5056385;28;20098;-85
2022/01/14 07:03:05;;;;;;;10.93;6.83;;;;;;;5.48;100.00;101970.88;5054545;28;20044;-82
2022/01/14 07:05:32;;;;;;;10.53;6.47;;;;;;;5.57;100.00;101978.91;5052014;28;20044;-82
2022/01/14 07:07:59;;;;;;;9.70;5.17;;;;;;;5.50;100.00;101986.63;5070450;28;20105;-83
2022/01/14 07:10:26;;;;;;;11.40;6.43;;;;;;;5.52;100.00;101991.03;5072138;28;20043;-85
2022/01/14 07:12:53;;;;;;;9.87;5.00;;;;;;;5.49;100.00;101983.13;5055112;28;20055;-83
2022/01/14 07:15:21;;;;;;;8.47;4.80;;;;;;;5.49;100.00;101987.47;5068204;28;20044;-82
2022/01/14 07:17:48;;;;;;;9.30;4.57;;;;;;;5.55;100.00;101978.00;5035038;28;20736;-81
2022/01/14 07:20:17;;;;;;;15.00;5.97;;;;;;;5.54;100.00;101972.72;5045642;28;20578;-82
2022/01/14 07:22:46;;;;;;;12.70;5.93;;;;;;;5.50;100.00;101982.25;5057882;28;20044;-82
2022/01/14 07:25:17;;;;;;;9.90;5.50;;;;;;;5.54;100.00;101968.34;5060464;28;20071;-82
2022/01/14 07:27:43;;;;;;;8.43;4.93;;;;;;;5.51;100.00;101970.91;5058625;28;20539;-84
2022/01/14 07:30:12;;;;;;;8.00;4.50;;;;;;;5.54;100.00;101970.97;5065416;28;20048;-86
2022/01/14 07:32:39;;;;;;;9.40;5.00;;;;;;;5.52;100.00;101948.22;5085247;28;20062;-84
2022/01/14 07:35:06;;;;;;;10.43;4.97;;;;;;;5.57;100.00;101954.44;5085127;28;20135;-86
2022/01/14 07:37:33;;;;;;;10.17;5.40;;;;;;;5.55;100.00;101957.03;5065306;28;20053;-83
2022/01/14 07:39:59;;;;;;;10.13;4.80;;;;;;;5.55;100.00;101967.53;5064448;28;20089;-83
2022/01/14 07:42:26;;;;;;;11.57;4.90;;;;;;;5.55;100.00;101959.66;5061749;28;20390;-84
2022/01/14 07:44:53;;;;;;;9.50;4.90;;;;;;;5.53;100.00;101971.81;5068612;28;20382;-82
2022/01/14 07:47:19;;;;;;;9.10;4.63;;;;;;;5.53;100.00;101969.19;5066803;28;20051;-83
2022/01/14 07:49:47;;;;;;;10.03;5.53;;;;;;;5.55;100.00;101964.00;5064348;28;20052;-83
2022/01/14 07:52:14;;;;;;;7.93;4.57;;;;;;;5.59;100.00;101974.59;5065187;28;20036;-84
2022/01/14 07:54:40;;;;;;;10.40;4.90;;;;;;;5.58;100.00;101974.56;5064068;28;20040;-84
2022/01/14 07:57:08;;;;;;;10.17;5.47;;;;;;;5.54;100.00;101976.22;5047695;28;20405;-83
2022/01/14 07:59:36;;;;;;;11.53;5.30;;;;;;;5.61;100.00;101974.59;5078117;28;20048;-83
2022/01/14 08:02:04;;;;;;;11.87;5.20;;;;;;;5.58;100.00;101971.94;5059718;28;20408;-83
2022/01/14 08:04:36;;;;;;;8.63;4.47;;;;;;;5.60;100.00;101971.09;5056269;28;20131;-84
2022/01/14 08:07:09;;;;;;;9.73;4.50;;;;;;;5.65;100.00;101972.09;5037064;28;20044;-82
2022/01/14 08:09:41;;;;;;;12.67;5.47;;;;;;;5.63;100.00;101952.84;5057585;28;20044;-82
2022/01/14 08:12:09;;;;;;;10.80;4.80;;;;;;;5.63;100.00;101950.22;5055861;28;20044;-83
2022/01/14 08:14:36;;;;;;;11.03;5.17;;;;;;;5.60;100.00;101951.88;5046500;28;20098;-82
2022/01/14 08:17:04;;;;;;;7.03;4.80;;;;;;;5.61;100.00;101945.78;5053069;28;20055;-82
2022/01/14 08:19:33;;;;;;;10.20;5.33;;;;;;;5.56;100.00;101955.31;5054075;28;20052;-83
2022/01/14 08:22:03;;;;;;;9.90;4.83;;;;;;;5.62;100.00;101955.41;5071837;28;20126;-81
2022/01/14 08:24:30;;;;;;;11.70;5.13;;;;;;;5.60;100.00;101944.00;5057962;28;20066;-84
2022/01/14 08:26:56;;;;;;;9.50;5.03;;;;;;;5.60;100.00;101952.75;5072488;28;20047;-83
2022/01/14 08:29:24;;;;;;;11.53;4.93;;;;;;;5.66;100.00;101946.75;5091050;28;20090;-83
2022/01/14 08:31:51;;;;;;;11.10;5.33;;;;;;;5.66;100.00;101954.63;5055561;28;20055;-83
2022/01/14 08:34:17;;;;;;;10.60;4.97;;;;;;;5.69;100.00;101959.03;5057319;28;20063;-82
2022/01/14 08:36:44;;;;;;;11.73;5.93;;;;;;;5.67;100.00;101955.50;5056008;28;20512;-82
2022/01/14 08:39:11;;;;;;;12.63;6.60;;;;;;;5.67;100.00;101959.00;5053477;28;20052;-81
2022/01/14 08:41:38;;;;;;;10.83;5.67;;;;;;;5.67;100.00;101952.88;5051646;28;20053;-84
2022/01/14 08:44:05;;;;;;;12.00;5.37;;;;;;;5.65;100.00;101951.13;5036808;28;20048;-81
2022/01/14 08:46:48;;;;;;;10.50;5.85;;;;;;;5.65;100.00;101940.63;5039722;28;20045;-82
2022/01/14 08:49:15;;;;;;;14.80;5.47;;;;;;;5.65;100.00;101935.41;5056486;28;20063;-82
2022/01/14 08:51:42;;;;;;;10.80;4.97;;;;;;;5.71;100.00;101942.47;5054904;28;20044;-84
2022/01/14 08:54:08;;;;;;;11.60;4.97;;;;;;;5.61;100.00;101930.94;5073129;28;20040;-82
2022/01/14 08:56:36;;;;;;;13.17;6.73;;;;;;;5.71;100.00;101938.97;5051761;28;20040;-81
2022/01/14 08:59:03;;;;;;;9.63;4.73;;;;;;;5.68;100.00;101946.78;5039071;28;20048;-81
2022/01/14 09:01:31;;;;;;;12.17;6.17;;;;;;;5.71;100.00;101942.47;5069865;28;20051;-84
2022/01/14 09:03:58;;;;;;;13.27;6.00;;;;;;;5.69;100.00;101940.69;5056420;28;20047;-85
2022/01/14 09:06:25;;;;;;;12.60;5.40;;;;;;;5.75;100.00;101944.31;5055027;28;20107;-82
2022/01/14 09:08:52;;;;;;;10.53;5.37;;;;;;;5.73;100.00;101947.78;5067703;28;20041;-81
2022/01/14 09:11:19;;;;;;;9.60;5.70;;;;;;;5.77;100.00;101936.47;5050763;28;20452;-82
2022/01/14 09:13:45;;;;;;;9.93;5.07;;;;;;;5.71;100.00;101947.72;5046116;28;20058;-81
2022/01/14 09:16:12;;;;;;;9.70;5.77;;;;;;;5.78;100.00;101949.63;5055039;28;20640;-81
2022/01/14 09:18:39;;;;;;;11.13;5.30;;;;;;;5.82;100.00;101946.22;5052900;28;20055;-82
2022/01/14 09:21:06;;;;;;;11.20;5.80;;;;;;;5.80;100.00;101936.53;5051105;28;20490;-82
2022/01/14 09:23:34;;;;;;;10.87;5.00;;;;;;;5.82;100.00;101925.25;5053947;28;20036;-85
2022/01/14 09:26:00;;;;;;;11.47;5.50;;;;;;;5.82;100.00;101924.34;5043001;28;20090;-83
2022/01/14 09:28:28;;;;;;;11.83;6.10;;;;;;;5.81;100.00;101915.59;5047625;28;20124;-82
2022/01/14 09:30:56;;;;;;;13.13;6.83;;;;;;;5.87;100.00;101920.06;5072048;28;20048;-86
2022/01/14 09:33:23;;;;;;;13.13;6.37;;;;;;;5.88;100.00;101919.19;5072112;28;20064;-85
2022/01/14 09:35:50;;;;;;;9.20;5.53;;;;;;;5.90;100.00;101909.66;5051571;28;20055;-82
2022/01/14 09:38:17;;;;;;;12.07;5.67;;;;;;;5.89;100.00;101907.88;5045438;28;20055;-83
2022/01/14 09:40:47;;;;;;;15.43;6.30;;;;;;;5.89;100.00;101915.75;5055328;28;20044;-82
2022/01/14 09:43:15;;;;;;;9.50;5.50;;;;;;;5.94;100.00;101914.13;5071302;28;20060;-82
2022/01/14 09:46:00;;;;;;;16.50;6.23;;;;;;;5.97;100.00;101921.16;5074061;28;20056;-82
2022/01/14 09:48:27;;;;;;;14.60;5.93;;;;;;;5.94;100.00;101937.72;5054202;28;20105;-82
2022/01/14 09:50:54;;;;;;;11.50;5.63;;;;;;;6.00;100.00;101945.72;5059995;28;20049;-83
2022/01/14 09:53:22;;;;;;;11.17;4.77;;;;;;;6.01;100.00;101936.09;5076640;28;20523;-82
2022/01/14 09:55:49;;;;;;;10.57;5.27;;;;;;;5.99;100.00;101951.81;5056918;28;20048;-83
2022/01/14 09:58:16;;;;;;;9.97;6.20;;;;;;;6.04;100.00;101958.00;5054436;28;20127;-83
2022/01/14 10:00:43;;;;;;;10.17;6.17;;;;;;;6.02;100.00;101954.50;5057773;28;20056;-82
2022/01/14 10:03:26;;;;;;;14.83;5.83;;;;;;;6.04;100.00;101949.25;5062180;28;20123;-84
2022/01/14 10:05:57;;;;;;;7.60;5.73;;;;;;;6.04;100.00;101931.78;5049796;28;20090;-83
2022/01/14 10:08:26;;;;;;;9.33;4.63;;;;;;;6.08;100.00;101933.63;5054431;28;20048;-83
2022/01/14 10:10:59;;;;;;;12.70;5.67;;;;;;;6.04;100.00;101951.88;5067471;28;20516;-82
2022/01/14 10:13:26;;;;;;;7.90;4.33;;;;;;;6.04;100.00;101938.78;5051100;28;20048;-84
2022/01/14 10:16:02;;;;;;;13.43;6.10;;;;;;;6.04;100.00;101939.66;5076267;28;20047;-83
2022/01/14 10:18:30;;;;;;;14.47;6.23;;;;;;;6.01;100.00;101947.47;5099020;23;20489;-80
2022/01/14 10:21:01;;;;;;;11.80;5.10;;;;;;;6.01;100.00;101947.47;5004116;28;20038;-81
2022/01/14 10:23:39;;;;;;;10.60;5.40;;;;;;;6.09;100.00;101963.38;5011906;28;20042;-80
2022/01/14 10:26:06;;;;;;;11.77;5.17;;;;;;;6.08;100.00;101940.63;5010347;28;20046;-79
2022/01/14 10:28:33;;;;;;;11.80;5.17;;;;;;;6.10;100.00;101933.66;5012538;28;20077;-79
2022/01/14 10:31:01;;;;;;;11.97;5.63;;;;;;;6.10;100.00;101931.03;4998111;28;20046;-80
2022/01/14 10:33:29;;;;;;;9.97;5.00;;;;;;;6.12;100.00;101930.19;5027097;28;20044;-79
2022/01/14 10:35:56;;;;;;;9.90;5.17;;;;;;;6.11;100.00;101930.16;5013093;28;20065;-79
2022/01/14 10:38:25;;;;;;;16.90;6.00;;;;;;;6.11;100.00;101933.66;4997330;28;20041;-81
2022/01/14 10:40:55;;;;;;;7.57;5.43;;;;;;;6.12;100.00;101929.31;5012324;28;20080;-80
2022/01/14 10:43:31;;;;;;;10.20;5.30;;;;;;;6.19;100.00;101926.81;5016616;28;20046;-81
2022/01/14 10:45:58;;;;;;;9.57;5.53;;;;;;;6.07;100.00;101924.00;5028337;28;20045;-82
2022/01/14 10:48:29;;;;;;;10.43;5.10;;;;;;;6.10;100.00;101916.16;5010941;28;20052;-83
2022/01/14 10:51:01;;;;;;;10.83;6.07;;;;;;;6.10;100.00;101913.53;5008340;28;20049;-83
2022/01/14 10:53:40;;;;;;;8.90;4.47;;;;;;;6.09;100.00;101929.25;5011097;28;20034;-81
2022/01/14 10:56:12;;;;;;;10.33;4.67;;;;;;;6.18;100.00;101917.19;5031494;28;20099;-82
2022/01/14 10:58:41;;;;;;;9.17;4.53;;;;;;;6.15;100.00;101911.00;5015585;28;20121;-81
2022/01/14 11:01:19;;;;;;;7.80;3.87;;;;;;;6.19;100.00;101902.31;4998756;28;20114;-82
2022/01/14 11:04:01;;;;;;;8.77;4.63;;;;;;;6.15;100.00;101900.50;5000735;28;20039;-81
2022/01/14 11:06:39;;;;;;;6.53;3.67;;;;;;;6.14;100.00;101917.13;4997001;28;20065;-80
2022/01/14 11:09:10;;;;;;;8.83;4.00;;;;;;;6.13;100.00;101915.31;5012865;28;20042;-82
2022/01/14 11:11:40;;;;;;;7.67;4.00;;;;;;;6.21;100.00;101916.34;4994916;28;20068;-82
2022/01/14 11:14:07;;;;;;;7.37;4.50;;;;;;;6.18;100.00;101929.41;5022041;28;20137;-81
2022/01/14 11:16:35;;;;;;;7.40;3.83;;;;;;;6.21;100.00;101921.59;4995296;28;20066;-82
2022/01/14 11:19:03;;;;;;;6.93;4.43;;;;;;;6.18;100.00;101934.66;5011786;28;20045;-82
2022/01/14 11:24:22;;;;;;;8.87;4.73;;;;;;;6.34;100.00;101925.31;5028790;28;20045;-81
2022/01/14 11:26:51;;;;;;;6.93;3.67;;;;;;;6.31;100.00;101925.28;5037155;28;20076;-81
2022/01/14 11:29:20;;;;;;;8.40;3.87;;;;;;;6.28;100.00;101928.72;5019231;28;20068;-81
2022/01/14 11:31:57;;;;;;;7.27;3.67;;;;;;;6.28;100.00;101925.22;5016714;28;20041;-84
2022/01/14 11:34:30;;;;;;;11.20;4.57;;;;;;;6.20;100.00;101910.22;4999157;28;20049;-80
2022/01/14 11:37:02;;;;;;;10.87;4.37;;;;;;;6.28;100.00;101912.97;5028876;28;20037;-84
2022/01/14 11:39:31;;;;;;;8.93;4.23;;;;;;;6.24;100.00;101908.53;5017050;28;20507;-84
2022/01/14 11:42:00;;;;;;;8.10;4.13;;;;;;;6.28;100.00;101886.72;5015281;28;20483;-80
2022/01/14 11:44:43;;;;;;;6.43;3.97;;;;;;;6.25;100.00;101894.56;5017381;28;20136;-83
2022/01/14 11:47:21;;;;;;;6.10;3.40;;;;;;;6.27;100.00;101881.47;5031751;28;20434;-83
2022/01/14 11:49:48;;;;;;;4.53;3.00;;;;;;;6.28;100.00;101884.09;5065346;28;20048;-82
2022/01/14 11:52:15;;;;;;;10.80;3.60;;;;;;;6.27;100.00;101884.09;5015364;28;20045;-83
2022/01/14 11:54:46;;;;;;;6.20;3.20;;;;;;;6.27;100.00;101889.34;4999123;28;20045;-83